createdAt,value
2022-11-05T00:00:48.972Z,50.49
2022-11-05T00:03:25.939Z,50.47
2022-11-05T00:06:02.919Z,50.35
2022-11-05T00:08:39.791Z,50.57
2022-11-05T00:11:06.838Z,50.07
2022-11-05T00:13:43.949Z,50.30
2022-11-05T00:16:20.960Z,50.64
2022-11-05T00:19:06.852Z,50.68
2022-11-05T00:21:43.728Z,50.45
2022-11-05T00:24:24.107Z,50.50
2022-11-05T00:26:51.542Z,50.65
2022-11-05T00:29:18.511Z,50.20
2022-11-05T00:31:45.471Z,50.74
2022-11-05T00:34:12.404Z,50.37
2022-11-05T00:36:39.343Z,50.05
2022-11-05T00:39:06.390Z,50.73
2022-11-05T00:41:33.443Z,50.27
2022-11-05T00:44:09.797Z,50.62
2022-11-05T00:46:36.910Z,50.77
2022-11-05T00:49:13.851Z,50.36
2022-11-05T00:51:40.933Z,50.57
2022-11-05T00:54:07.852Z,50.20
2022-11-05T00:56:34.879Z,50.50
2022-11-05T00:59:01.900Z,50.33
2022-11-05T01:01:29.115Z,50.21
2022-11-05T01:03:56.148Z,50.55
2022-11-05T01:06:23.009Z,50.70
2022-11-05T01:08:50.059Z,50.83
2022-11-05T01:11:33.672Z,50.74
2022-11-05T01:14:02.216Z,50.55
2022-11-05T01:16:29.839Z,50.94
2022-11-05T01:18:56.949Z,50.54
2022-11-05T01:21:23.878Z,50.48
2022-11-05T01:23:50.906Z,50.94
2022-11-05T01:26:17.709Z,50.92
2022-11-05T01:28:44.799Z,50.99
2022-11-05T01:31:11.656Z,51.22
2022-11-05T01:33:38.569Z,51.23
2022-11-05T01:36:05.536Z,51.13
2022-11-05T01:38:32.557Z,51.15
2022-11-05T01:40:59.488Z,51.05
2022-11-05T01:43:26.398Z,51.02
2022-11-05T01:45:55.778Z,51.25
2022-11-05T01:48:28.056Z,51.06
2022-11-05T01:50:59.744Z,51.06
2022-11-05T01:53:31.119Z,51.07
2022-11-05T01:56:03.605Z,50.91
2022-11-05T01:58:37.449Z,51.20
2022-11-05T02:01:04.497Z,50.88
2022-11-05T02:03:31.608Z,50.88
2022-11-05T02:06:00.011Z,50.99
2022-11-05T02:08:39.810Z,50.92
2022-11-05T02:11:06.798Z,50.88
2022-11-05T02:13:33.741Z,50.66
2022-11-05T02:16:05.529Z,50.78
2022-11-05T02:18:41.939Z,51.12
2022-11-05T02:21:17.844Z,50.96
2022-11-05T02:23:54.180Z,51.14
2022-11-05T02:26:22.302Z,50.88
2022-11-05T02:29:03.387Z,50.98
2022-11-05T02:31:36.729Z,51.10
2022-11-05T02:34:13.054Z,51.43
2022-11-05T02:36:49.001Z,51.10
2022-11-05T02:39:22.850Z,51.23
2022-11-05T02:42:03.654Z,51.11
2022-11-05T02:44:33.678Z,51.31
2022-11-05T02:47:04.079Z,51.41
2022-11-05T02:49:39.821Z,51.39
2022-11-05T02:52:16.104Z,51.50
2022-11-05T02:54:46.248Z,51.21
2022-11-05T02:57:13.214Z,51.38
2022-11-05T02:59:40.245Z,51.34
2022-11-05T03:02:07.347Z,51.43
2022-11-05T03:04:34.509Z,51.80
2022-11-05T03:07:08.477Z,51.85
2022-11-05T03:09:38.479Z,52.02
2022-11-05T03:12:13.380Z,51.97
2022-11-05T03:14:49.796Z,51.79
2022-11-05T03:17:29.667Z,51.92
2022-11-05T03:20:05.816Z,51.62
2022-11-05T03:22:38.141Z,51.74
2022-11-05T03:25:16.561Z,51.66
2022-11-05T03:27:45.858Z,52.02
2022-11-05T03:30:13.318Z,51.66
2022-11-05T03:32:42.618Z,52.15
2022-11-05T03:35:13.969Z,52.24
2022-11-05T03:37:42.450Z,51.90
2022-11-05T03:40:10.777Z,52.00
2022-11-05T03:42:39.257Z,52.35
2022-11-05T03:45:10.147Z,52.25
2022-11-05T03:47:38.762Z,52.33
2022-11-05T03:50:12.113Z,52.62
2022-11-05T03:52:44.398Z,52.41
2022-11-05T03:55:11.321Z,52.64
2022-11-05T03:57:41.323Z,52.36
2022-11-05T04:00:09.809Z,52.67
2022-11-05T04:02:37.800Z,52.59
2022-11-05T04:05:05.639Z,52.22
2022-11-05T04:07:41.750Z,52.59
2022-11-05T04:10:18.918Z,52.53
2022-11-05T04:12:55.749Z,52.33
2022-11-05T04:15:22.743Z,52.91
2022-11-05T04:17:49.547Z,52.85
2022-11-05T04:20:26.497Z,52.65
2022-11-05T04:23:10.881Z,52.63
2022-11-05T04:25:37.898Z,52.62
2022-11-05T04:28:04.793Z,52.89
2022-11-05T04:30:31.487Z,52.84
2022-11-05T04:33:07.961Z,53.06
2022-11-05T04:35:35.098Z,52.54
2022-11-05T04:38:02.320Z,52.55
2022-11-05T04:40:29.619Z,52.90
2022-11-05T04:42:56.846Z,52.68
2022-11-05T04:45:23.938Z,52.68
2022-11-05T04:47:50.838Z,52.90
2022-11-05T04:50:17.649Z,53.21
2022-11-05T04:52:44.378Z,53.07
2022-11-05T04:55:11.202Z,52.83
2022-11-05T04:57:37.944Z,52.86
2022-11-05T05:00:06.183Z,53.24
2022-11-05T05:02:32.893Z,53.07
2022-11-05T05:04:59.646Z,53.17
2022-11-05T05:07:27.091Z,53.24
2022-11-05T05:09:55.237Z,53.41
2022-11-05T05:12:22.578Z,53.37
2022-11-05T05:14:49.506Z,53.53
2022-11-05T05:17:17.034Z,53.22
2022-11-05T05:19:54.009Z,53.04
2022-11-05T05:22:20.838Z,53.45
2022-11-05T05:24:52.530Z,53.30
2022-11-05T05:27:19.881Z,53.29
2022-11-05T05:29:46.576Z,53.28
2022-11-05T05:32:13.321Z,53.29
2022-11-05T05:34:40.027Z,53.62
2022-11-05T05:37:07.059Z,53.30
2022-11-05T05:39:34.458Z,53.30
2022-11-05T05:42:01.184Z,53.17
2022-11-05T05:44:27.898Z,53.53
2022-11-05T05:46:55.588Z,53.29
2022-11-05T05:49:22.426Z,53.54
2022-11-05T05:51:50.298Z,53.29
2022-11-05T05:54:17.151Z,53.55
2022-11-05T05:56:44.621Z,53.33
2022-11-05T05:59:11.678Z,53.32
2022-11-05T06:01:38.546Z,53.56
2022-11-05T06:04:05.492Z,53.48
2022-11-05T06:06:33.340Z,53.73
2022-11-05T06:09:00.363Z,53.70
2022-11-05T06:11:27.258Z,53.40
2022-11-05T06:13:54.050Z,53.89
2022-11-05T06:16:20.749Z,53.76
2022-11-05T06:18:47.536Z,53.91
2022-11-05T06:21:15.818Z,53.88
2022-11-05T06:23:43.738Z,53.72
2022-11-05T06:26:13.367Z,53.60
2022-11-05T06:28:42.335Z,53.53
2022-11-05T06:31:09.639Z,53.68
2022-11-05T06:33:36.417Z,53.54
2022-11-05T06:36:04.699Z,53.94
2022-11-05T06:38:33.508Z,53.55
2022-11-05T06:41:03.301Z,53.79
2022-11-05T06:43:32.706Z,53.76
2022-11-05T06:46:01.316Z,53.73
2022-11-05T06:48:28.995Z,53.83
2022-11-05T06:50:55.878Z,53.90
2022-11-05T06:53:22.694Z,53.83
2022-11-05T06:55:49.468Z,54.47
2022-11-05T06:58:16.516Z,54.50
2022-11-05T07:00:43.624Z,55.27
2022-11-05T07:03:11.453Z,55.58
2022-11-05T07:05:41.987Z,56.03
2022-11-05T07:08:08.733Z,56.08
2022-11-05T07:10:35.560Z,56.22
2022-11-05T07:13:07.579Z,55.52
2022-11-05T07:15:35.095Z,55.80
2022-11-05T07:18:01.999Z,55.59
2022-11-05T07:20:33.570Z,56.15
2022-11-05T07:23:04.810Z,55.94
2022-11-05T07:25:32.687Z,56.27
2022-11-05T07:27:59.478Z,56.15
2022-11-05T07:30:26.489Z,56.44
2022-11-05T07:32:53.209Z,56.25
2022-11-05T07:35:19.878Z,56.48
2022-11-05T07:37:47.709Z,56.54
2022-11-05T07:40:15.547Z,56.08
2022-11-05T07:42:43.879Z,56.15
2022-11-05T07:45:10.947Z,56.16
2022-11-05T07:47:39.500Z,56.39
2022-11-05T07:50:08.429Z,56.33
2022-11-05T07:52:35.150Z,56.11
2022-11-05T07:55:01.977Z,56.13
2022-11-05T07:57:28.696Z,56.38
2022-11-05T07:59:55.448Z,56.15
2022-11-05T08:02:22.410Z,56.46
2022-11-05T08:04:49.417Z,56.03
2022-11-05T08:07:16.196Z,56.44
2022-11-05T08:09:42.937Z,56.08
2022-11-05T08:12:09.747Z,56.43
2022-11-05T08:14:36.591Z,56.03
2022-11-05T08:17:03.407Z,56.47
2022-11-05T08:19:30.126Z,56.36
2022-11-05T08:21:57.008Z,56.25
2022-11-05T08:24:23.719Z,56.10
2022-11-05T08:26:50.388Z,56.34
2022-11-05T08:29:17.106Z,56.02
2022-11-05T08:31:43.868Z,55.87
2022-11-05T08:34:10.796Z,55.80
2022-11-05T08:36:37.599Z,55.73
2022-11-05T08:39:04.546Z,56.01
2022-11-05T08:41:31.278Z,56.01
2022-11-05T08:43:57.991Z,55.55
2022-11-05T08:46:24.842Z,55.20
2022-11-05T08:48:51.716Z,55.01
2022-11-05T08:51:19.660Z,54.79
2022-11-05T08:53:46.374Z,55.25
2022-11-05T08:56:13.189Z,54.95
2022-11-05T08:58:40.067Z,55.36
2022-11-05T09:01:07.407Z,55.20
2022-11-05T09:03:34.287Z,55.29
2022-11-05T09:06:01.029Z,55.26
2022-11-05T09:08:27.898Z,55.25
2022-11-05T09:10:54.805Z,55.57
2022-11-05T09:13:21.945Z,55.42
2022-11-05T09:15:49.840Z,55.49
2022-11-05T09:18:19.565Z,55.55
2022-11-05T09:20:46.718Z,54.98
2022-11-05T09:23:15.269Z,54.96
2022-11-05T09:25:42.297Z,55.29
2022-11-05T09:28:15.922Z,55.08
2022-11-05T09:30:44.498Z,54.71
2022-11-05T09:33:11.679Z,55.17
2022-11-05T09:35:40.148Z,54.95
2022-11-05T09:38:07.516Z,54.88
2022-11-05T09:40:37.978Z,54.95
2022-11-05T09:43:05.887Z,54.78
2022-11-05T09:45:33.508Z,54.84
2022-11-05T09:48:04.364Z,54.56
2022-11-05T09:50:34.037Z,54.97
2022-11-05T09:53:01.265Z,54.58
2022-11-05T09:55:32.157Z,54.42
2022-11-05T09:58:00.798Z,54.14
2022-11-05T10:00:29.167Z,54.48
2022-11-05T10:02:58.206Z,54.03
2022-11-05T10:05:26.327Z,54.04
2022-11-05T10:07:59.128Z,54.17
2022-11-05T10:10:34.136Z,53.98
2022-11-05T10:13:13.197Z,54.36
2022-11-05T10:15:42.870Z,54.23
2022-11-05T10:18:18.908Z,54.53
2022-11-05T10:20:45.829Z,54.71
2022-11-05T10:23:15.417Z,54.41
2022-11-05T10:25:44.372Z,53.97
2022-11-05T10:28:15.256Z,53.15
2022-11-05T10:30:42.528Z,53.15
2022-11-05T10:33:12.507Z,52.91
2022-11-05T10:35:46.672Z,52.39
2022-11-05T10:38:14.480Z,52.55
2022-11-05T10:40:42.426Z,52.34
2022-11-05T10:43:18.757Z,52.06
2022-11-05T10:45:52.578Z,51.96
2022-11-05T10:48:22.521Z,51.89
2022-11-05T10:50:49.441Z,51.67
2022-11-05T10:53:16.455Z,51.58
2022-11-05T10:55:46.439Z,51.92
2022-11-05T10:58:17.648Z,51.95
2022-11-05T11:00:45.783Z,51.46
2022-11-05T11:03:32.501Z,51.60
2022-11-05T11:06:01.184Z,51.68
2022-11-05T11:08:28.808Z,51.48
2022-11-05T11:10:57.673Z,51.66
2022-11-05T11:13:27.429Z,51.71
2022-11-05T11:15:55.427Z,51.47
2022-11-05T11:18:33.503Z,51.71
2022-11-05T11:21:08.045Z,51.78
2022-11-05T11:23:39.366Z,51.48
2022-11-05T11:26:06.390Z,51.76
2022-11-05T11:28:33.484Z,52.06
2022-11-05T11:31:09.758Z,51.90
2022-11-05T11:33:37.859Z,52.12
2022-11-05T11:36:05.619Z,52.20
2022-11-05T11:38:34.696Z,51.92
2022-11-05T11:41:21.331Z,52.11
2022-11-05T11:43:48.399Z,51.66
2022-11-05T11:46:18.352Z,51.71
2022-11-05T11:48:47.764Z,51.83
2022-11-05T11:51:19.341Z,51.74
2022-11-05T11:53:51.112Z,51.77
2022-11-05T11:56:20.053Z,52.14
2022-11-05T11:58:48.529Z,51.80
2022-11-05T12:01:15.507Z,52.05
2022-11-05T12:03:49.775Z,52.20
2022-11-05T12:06:25.908Z,52.29
2022-11-05T12:09:06.834Z,51.80
2022-11-05T12:11:42.789Z,52.09
2022-11-05T12:14:24.160Z,52.24
2022-11-05T12:16:52.208Z,52.17
2022-11-05T12:19:28.733Z,52.14
2022-11-05T12:21:56.771Z,52.05
2022-11-05T12:24:33.095Z,52.25
2022-11-05T12:27:11.431Z,52.01
2022-11-05T12:29:47.931Z,52.01
2022-11-05T12:32:23.748Z,52.02
2022-11-05T12:34:58.643Z,52.53
2022-11-05T12:37:34.948Z,52.31
2022-11-05T12:40:05.011Z,52.39
2022-11-05T12:42:35.116Z,52.77
2022-11-05T12:45:16.048Z,52.57
2022-11-05T12:47:52.538Z,52.93
2022-11-05T12:50:19.579Z,52.84
2022-11-05T12:52:49.619Z,52.57
2022-11-05T12:55:19.575Z,52.65
2022-11-05T12:57:48.528Z,52.83
2022-11-05T13:00:16.899Z,52.70
2022-11-05T13:02:53.009Z,52.95
2022-11-05T13:05:29.839Z,52.96
2022-11-05T13:08:07.746Z,53.29
2022-11-05T13:10:37.538Z,53.73
2022-11-05T13:13:12.580Z,53.35
2022-11-05T13:15:44.496Z,53.56
2022-11-05T13:18:14.545Z,53.90
2022-11-05T13:20:45.351Z,53.56
2022-11-05T13:23:21.778Z,54.02
2022-11-05T13:25:54.969Z,53.69
2022-11-05T13:28:23.011Z,53.90
2022-11-05T13:30:53.169Z,53.32
2022-11-05T13:33:22.855Z,53.75
2022-11-05T13:36:08.686Z,53.95
2022-11-05T13:38:44.628Z,53.82
2022-11-05T13:41:21.665Z,53.82
2022-11-05T13:43:57.045Z,53.65
2022-11-05T13:46:24.154Z,53.95
2022-11-05T13:49:00.988Z,53.89
2022-11-05T13:51:38.887Z,54.10
2022-11-05T13:54:06.551Z,53.74
2022-11-05T13:56:33.796Z,54.14
2022-11-05T13:59:10.366Z,53.94
2022-11-05T14:01:47.086Z,54.13
2022-11-05T14:04:15.940Z,53.72
2022-11-05T14:06:42.838Z,54.02
2022-11-05T14:09:13.856Z,53.62
2022-11-05T14:11:42.830Z,53.52
2022-11-05T14:14:17.230Z,53.74
2022-11-05T14:16:53.960Z,53.58
2022-11-05T14:19:21.089Z,53.43
2022-11-05T14:21:49.806Z,53.43
2022-11-05T14:24:36.494Z,53.47
2022-11-05T14:27:03.716Z,53.68
2022-11-05T14:29:39.800Z,53.38
2022-11-05T14:32:25.171Z,53.60
2022-11-05T14:35:02.262Z,53.67
2022-11-05T14:37:39.730Z,53.40
2022-11-05T14:40:16.080Z,53.58
2022-11-05T14:42:49.598Z,54.06
2022-11-05T14:45:17.640Z,53.75
2022-11-05T14:47:52.069Z,54.09
2022-11-05T14:50:21.050Z,53.56
2022-11-05T14:52:52.565Z,53.74
2022-11-05T14:55:28.892Z,53.71
2022-11-05T14:57:55.928Z,53.65
2022-11-05T15:00:32.806Z,53.47
2022-11-05T15:03:01.833Z,53.53
2022-11-05T15:05:30.084Z,53.41
2022-11-05T15:07:58.278Z,53.81
2022-11-05T15:10:32.675Z,53.51
2022-11-05T15:13:04.034Z,53.44
2022-11-05T15:15:40.880Z,53.68
2022-11-05T15:18:17.026Z,54.04
2022-11-05T15:20:46.097Z,54.07
2022-11-05T15:23:15.161Z,54.28
2022-11-05T15:25:54.637Z,54.23
2022-11-05T15:28:22.748Z,54.50
2022-11-05T15:30:57.971Z,54.65
2022-11-05T15:33:24.945Z,54.82
2022-11-05T15:35:51.988Z,54.95
2022-11-05T15:38:25.528Z,55.45
2022-11-05T15:41:01.918Z,55.02
2022-11-05T15:43:29.175Z,55.07
2022-11-05T15:46:05.820Z,55.50
2022-11-05T15:48:33.685Z,55.13
2022-11-05T15:51:00.842Z,55.27
2022-11-05T15:56:22.316Z,55.48
2022-11-05T15:58:50.493Z,55.29
2022-11-05T16:01:28.271Z,55.70
2022-11-05T16:03:58.468Z,55.38
2022-11-05T16:06:34.740Z,55.17
2022-11-05T16:09:02.138Z,55.43
2022-11-05T16:11:29.323Z,55.47
2022-11-05T16:14:13.429Z,55.76
2022-11-05T16:16:40.676Z,55.60
2022-11-05T16:19:16.902Z,55.58
2022-11-05T16:21:57.961Z,55.26
2022-11-05T16:24:29.176Z,55.67
2022-11-05T16:27:02.663Z,55.43
2022-11-05T16:29:39.840Z,55.48
2022-11-05T16:32:30.638Z,55.69
2022-11-05T16:35:00.528Z,55.71
2022-11-05T16:37:28.291Z,55.21
2022-11-05T16:39:56.449Z,55.70
2022-11-05T16:42:23.548Z,55.19
2022-11-05T16:44:50.825Z,55.33
2022-11-05T16:47:17.920Z,55.42
2022-11-05T16:49:45.099Z,55.44
2022-11-05T16:52:14.465Z,55.47
2022-11-05T16:54:41.858Z,55.32
2022-11-05T16:57:19.979Z,55.59
2022-11-05T16:59:46.994Z,55.09
2022-11-05T17:02:14.061Z,55.27
2022-11-05T17:04:41.107Z,55.49
2022-11-05T17:07:08.130Z,55.28
2022-11-05T17:09:35.183Z,55.41
2022-11-05T17:12:02.733Z,55.74
2022-11-05T17:14:29.597Z,55.66
2022-11-05T17:16:56.593Z,55.63
2022-11-05T17:19:23.470Z,55.31
2022-11-05T17:21:50.476Z,55.74
2022-11-05T17:24:17.712Z,55.93
2022-11-05T17:26:44.774Z,56.32
2022-11-05T17:29:11.643Z,56.45
2022-11-05T17:31:41.550Z,56.45
2022-11-05T17:34:09.493Z,56.35
2022-11-05T17:36:36.438Z,56.66
2022-11-05T17:39:03.433Z,56.44
2022-11-05T17:41:30.853Z,56.81
2022-11-05T17:43:58.301Z,56.86
2022-11-05T17:46:25.914Z,56.87
2022-11-05T17:48:52.783Z,56.85
2022-11-05T17:51:20.468Z,57.06
2022-11-05T17:53:49.354Z,57.32
2022-11-05T17:56:27.210Z,57.30
2022-11-05T17:59:00.162Z,57.82
2022-11-05T18:01:29.145Z,57.41
2022-11-05T18:03:56.556Z,56.96
2022-11-05T18:06:23.576Z,56.61
2022-11-05T18:08:50.553Z,56.68
2022-11-05T18:11:18.068Z,56.81
2022-11-05T18:13:45.271Z,56.57
2022-11-05T18:16:12.141Z,56.72
2022-11-05T18:18:38.958Z,56.21
2022-11-05T18:21:05.880Z,56.39
2022-11-05T18:23:33.118Z,56.62
2022-11-05T18:25:59.983Z,56.44
2022-11-05T18:28:26.855Z,56.42
2022-11-05T18:30:53.793Z,56.84
2022-11-05T18:33:20.629Z,58.21
2022-11-05T18:35:47.532Z,57.65
2022-11-05T18:38:14.546Z,58.39
2022-11-05T18:40:41.459Z,58.99
2022-11-05T18:43:08.342Z,59.97
2022-11-05T18:45:35.215Z,59.47
2022-11-05T18:48:02.710Z,60.25
2022-11-05T18:50:30.885Z,59.88
2022-11-05T18:52:57.848Z,59.62
2022-11-05T18:55:25.019Z,59.53
2022-11-05T18:57:52.007Z,59.93
2022-11-05T19:00:19.021Z,59.68
2022-11-05T19:02:46.057Z,59.73
2022-11-05T19:05:29.752Z,59.58
2022-11-05T19:07:57.610Z,59.31
2022-11-05T19:10:24.526Z,59.35
2022-11-05T19:12:51.708Z,58.68
2022-11-05T19:15:18.550Z,59.20
2022-11-05T19:17:45.885Z,58.94
2022-11-05T19:20:12.841Z,58.63
2022-11-05T19:22:39.854Z,58.33
2022-11-05T19:25:07.179Z,58.23
2022-11-05T19:27:35.843Z,58.56
2022-11-05T19:30:02.788Z,58.42
2022-11-05T19:32:29.865Z,57.67
2022-11-05T19:34:58.604Z,57.85
2022-11-05T19:37:25.847Z,57.63
2022-11-05T19:39:52.898Z,58.03
2022-11-05T19:42:19.979Z,58.04
2022-11-05T19:44:46.859Z,57.53
2022-11-05T19:47:13.753Z,57.73
2022-11-05T19:49:40.856Z,57.85
2022-11-05T19:52:07.813Z,57.24
2022-11-05T19:54:36.438Z,57.55
2022-11-05T19:57:03.416Z,57.24
2022-11-05T19:59:30.467Z,57.40
2022-11-05T20:01:57.644Z,57.61
2022-11-05T20:04:24.696Z,57.57
2022-11-05T20:06:51.701Z,57.09
2022-11-05T20:09:23.171Z,57.00
2022-11-05T20:11:51.277Z,57.10
2022-11-05T20:14:18.241Z,57.00
2022-11-05T20:16:45.911Z,56.97
2022-11-05T20:19:15.006Z,57.10
2022-11-05T20:21:42.055Z,57.31
2022-11-05T20:24:09.384Z,57.17
2022-11-05T20:26:36.320Z,57.21
2022-11-05T20:29:03.784Z,57.26
2022-11-05T20:31:30.876Z,57.33
2022-11-05T20:33:59.874Z,57.04
2022-11-05T20:36:27.044Z,57.22
2022-11-05T20:38:56.904Z,56.97
2022-11-05T20:41:24.259Z,56.84
2022-11-05T20:43:51.582Z,57.13
2022-11-05T20:46:20.133Z,56.81
2022-11-05T20:48:47.139Z,56.85
2022-11-05T20:51:15.813Z,56.88
2022-11-05T20:53:43.102Z,57.13
2022-11-05T20:56:20.169Z,56.76
2022-11-05T20:58:47.792Z,57.08
2022-11-05T21:01:16.906Z,57.08
2022-11-05T21:03:44.393Z,57.12
2022-11-05T21:06:11.885Z,57.31
2022-11-05T21:08:39.180Z,57.19
2022-11-05T21:11:06.511Z,56.95
2022-11-05T21:13:33.502Z,57.25
2022-11-05T21:16:01.398Z,57.45
2022-11-05T21:18:30.791Z,57.34
2022-11-05T21:20:58.462Z,57.27
2022-11-05T21:23:25.345Z,57.05
2022-11-05T21:25:52.243Z,57.62
2022-11-05T21:28:19.231Z,58.38
2022-11-05T21:30:46.833Z,57.80
2022-11-05T21:33:14.763Z,58.09
2022-11-05T21:35:44.383Z,58.09
2022-11-05T21:38:14.667Z,58.50
2022-11-05T21:40:42.231Z,58.48
2022-11-05T21:43:10.925Z,58.13
2022-11-05T21:45:39.202Z,58.22
2022-11-05T21:48:06.736Z,58.28
2022-11-05T21:50:42.826Z,58.35
2022-11-05T21:53:23.779Z,57.91
2022-11-05T21:56:10.533Z,58.26
2022-11-05T21:58:46.723Z,58.24
2022-11-05T22:01:13.508Z,58.31
2022-11-05T22:03:40.431Z,58.43
2022-11-05T22:06:07.312Z,58.23
2022-11-05T22:08:34.153Z,58.21
2022-11-05T22:11:03.269Z,58.15
2022-11-05T22:13:30.042Z,58.13
2022-11-05T22:15:57.014Z,58.10
2022-11-05T22:18:23.812Z,57.91
2022-11-05T22:20:50.692Z,58.41
2022-11-05T22:23:17.741Z,58.38
2022-11-05T22:25:44.531Z,58.24
2022-11-05T22:28:11.548Z,58.31
2022-11-05T22:30:38.598Z,58.46
2022-11-05T22:33:05.823Z,57.98
2022-11-05T22:35:32.842Z,58.30
2022-11-05T22:37:59.891Z,57.94
2022-11-05T22:40:26.811Z,58.00
2022-11-05T22:42:53.581Z,58.46
2022-11-05T22:45:20.544Z,58.16
2022-11-05T22:47:47.369Z,57.93
2022-11-05T22:50:14.154Z,58.18
2022-11-05T22:52:41.174Z,58.23
2022-11-05T22:55:08.365Z,58.68
2022-11-05T22:57:35.236Z,58.74
2022-11-05T23:00:02.391Z,59.39
2022-11-05T23:02:29.371Z,60.07
2022-11-05T23:04:56.411Z,60.06
2022-11-05T23:07:32.710Z,60.06
2022-11-05T23:10:08.753Z,59.78
2022-11-05T23:12:39.228Z,59.80
2022-11-05T23:15:07.544Z,60.04
2022-11-05T23:17:44.980Z,60.10
2022-11-05T23:20:22.940Z,60.20
2022-11-05T23:22:59.661Z,60.10
2022-11-05T23:25:26.489Z,59.96
2022-11-05T23:27:54.116Z,60.14
2022-11-05T23:30:22.316Z,59.75
2022-11-05T23:32:49.533Z,59.87
2022-11-05T23:35:16.700Z,59.81
2022-11-05T23:37:53.783Z,59.75
2022-11-05T23:40:23.161Z,59.74
2022-11-05T23:42:59.853Z,59.17
2022-11-05T23:45:36.840Z,59.13
2022-11-05T23:48:20.209Z,59.44
2022-11-05T23:50:51.232Z,59.04
2022-11-05T23:53:18.436Z,59.08
2022-11-05T23:55:45.827Z,58.83
2022-11-05T23:58:12.997Z,58.80
